EDT,Max TemperatureF,Mean TemperatureF,Min TemperatureF,Max Dew PointF,MeanDew PointF,Min DewpointF,Max Humidity, Mean Humidity, Min Humidity, Max Sea Level PressureIn, Mean Sea Level PressureIn, Min Sea Level PressureIn, Max VisibilityMiles, Mean VisibilityMiles, Min VisibilityMiles, Max Wind SpeedMPH, Mean Wind SpeedMPH, Max Gust SpeedMPH,PrecipitationIn, CloudCover, Events, WindDirDegrees
2013-3-1,32,30,28,28,23,21,87,78,74,30.08,30.02,29.93,10,10,7,14,10,22,0.00,8,,353
2013-3-2,28,27,26,25,22,19,93,79,74,30.06,30.04,30.02,10,7,0,12,8,17,0.00,8,Snow,332
2013-3-3,30,26,21,19,18,16,93,73,55,30.04,30.02,29.98,10,10,7,15,7,18,0.00,5,Snow,304
2013-3-4,35,27,19,25,19,16,93,73,48,30.13,30.09,30.04,10,10,10,8,3,,0.00,0,,311
2013-3-5,35,30,24,27,25,21,93,82,70,30.10,29.93,29.78,10,10,10,20,9,28,0.00,5,,67
2013-3-6,41,34,28,32,29,25,93,78,65,30.19,30.02,29.78,10,10,10,14,8,18,0.00,5,,353
2013-3-7,39,34,30,32,28,21,87,77,60,30.37,30.28,30.18,10,9,5,14,5,,0.00,8,,314
2013-3-8,44,35,26,30,25,21,100,72,49,30.48,30.43,30.37,10,10,7,8,2,,0.00,0,,302
2013-3-9,42,34,26,34,30,27,100,84,65,30.40,30.25,30.03,10,8,2,13,4,18,0.00,1,Rain,116
2013-3-10,66,50,35,46,39,34,93,61,39,30.02,29.91,29.80,10,10,7,16,7,24,0.00,2,Rain,169
2013-3-11,57,48,39,50,44,34,94,79,59,29.82,29.66,29.47,10,10,4,25,13,34,0.00,8,Rain,196
2013-3-12,39,36,33,34,31,27,93,81,70,29.92,29.84,29.71,10,10,5,21,15,30,0.00,7,Snow,240
2013-3-13,33,30,28,30,23,18,93,73,55,30.18,30.01,29.86,10,9,0,23,13,31,0.00,5,Snow,275
2013-3-14,42,33,24,27,21,18,80,63,39,30.25,30.18,30.07,10,10,10,15,9,20,0.00,0,,275
2013-3-15,44,38,32,36,32,25,100,81,66,30.07,29.91,29.83,10,7,2,15,8,16,0.00,7,Rain,263
2013-3-16,35,32,30,36,29,25,100,91,75,30.03,29.84,29.72,10,7,1,13,7,21,0.00,8,Rain-Snow,20
2013-3-17,32,28,23,27,20,12,86,70,47,30.24,30.17,30.03,10,10,10,14,7,22,0.00,3,,33
2013-3-18,37,32,26,37,31,21,100,89,75,30.15,29.79,29.53,10,6,1,20,12,30,0.00,6,Rain-Snow,94
2013-3-19,35,30,24,34,21,16,93,70,52,29.94,29.79,29.64,10,9,0,32,19,39,0.00,7,Snow,257
2013-3-20,30,26,21,19,16,10,74,63,51,29.94,29.91,29.88,10,10,2,22,12,26,0.00,4,Snow,273
2013-3-21,33,25,17,25,19,12,93,75,60,29.92,29.88,29.86,10,9,1,20,11,23,0.00,6,Snow,275
2013-3-22,42,35,28,27,22,19,80,64,46,30.01,29.96,29.92,10,10,3,14,10,21,0.00,5,Snow,288
2013-3-23,41,32,24,28,25,21,100,76,53,30.08,30.04,30.00,10,10,7,13,3,,0.00,2,,333
2013-3-24,37,32,28,28,26,21,93,77,56,30.02,29.82,29.58,10,10,10,21,8,29,0.00,3,,53
2013-3-25,39,36,32,34,28,25,93,76,65,29.88,29.64,29.51,10,9,3,18,12,28,0.00,8,Snow,17
2013-3-26,44,40,35,34,30,28,87,71,53,30.10,30.00,29.88,10,10,2,17,9,23,0.00,8,Rain,308
2013-3-27,46,38,30,32,28,27,93,66,46,30.19,30.14,30.10,10,10,10,21,11,28,0.00,5,,287
2013-3-28,51,40,30,36,28,25,86,61,35,30.25,30.22,30.19,10,10,10,14,9,21,0.00,7,,292
2013-3-29,51,40,30,30,25,19,81,56,28,30.27,30.23,30.18,10,10,10,9,6,,0.00,1,,280
2013-3-30,57,44,30,36,27,18,81,55,24,30.20,30.10,29.93,10,10,10,15,3,20,0.00,0,,227
2013-3-31,60,50,39,45,36,30,93,63,34,29.92,29.72,29.62,10,10,5,20,6,25,0.00,5,Rain,237